Time;durP1;ratioP1;P1;durP2;ratioP2;P2;SDS_P1;SDS_P2;PMS_P1;PMS_P2;Temp;Humidity;BMP_temperature;BMP_pressure;BME280_temperature;BME280_humidity;BME280_pressure;Samples;Min_cycle;Max_cycle;Signal;HPM_P1;HPM_P2
2023/08/25 00:00:38;;;;;;;13.30;11.68;;;19.30;99.90;;;;;;5067750;28;20094;-84
2023/08/25 00:03:04;;;;;;;12.93;11.63;;;19.30;99.90;;;;;;5068805;28;20041;-84
2023/08/25 00:05:30;;;;;;;13.38;11.60;;;19.20;99.90;;;;;;5067801;28;20478;-84
2023/08/25 00:07:55;;;;;;;13.63;12.30;;;19.20;99.90;;;;;;5066681;28;20051;-84
2023/08/25 00:10:22;;;;;;;12.90;11.68;;;19.20;99.90;;;;;;5066921;28;20044;-84
2023/08/25 00:12:49;;;;;;;13.27;11.88;;;19.20;99.90;;;;;;5078216;28;20090;-84
2023/08/25 00:15:14;;;;;;;13.68;12.30;;;19.10;99.90;;;;;;5084590;28;20036;-84
2023/08/25 00:17:40;;;;;;;14.15;12.63;;;19.10;99.90;;;;;;5065415;28;20048;-84
2023/08/25 00:20:09;;;;;;;14.30;12.93;;;19.10;99.90;;;;;;5067499;28;20139;-84
2023/08/25 00:22:35;;;;;;;13.95;12.43;;;19.00;99.90;;;;;;5069058;28;20040;-84
2023/08/25 00:25:00;;;;;;;14.05;12.65;;;19.00;99.90;;;;;;5085353;28;20043;-83
2023/08/25 00:27:26;;;;;;;14.35;12.95;;;19.00;99.90;;;;;;5077280;28;20469;-84
2023/08/25 00:29:53;;;;;;;13.95;12.50;;;19.10;99.90;;;;;;5066816;28;20698;-84
2023/08/25 00:32:19;;;;;;;13.95;12.65;;;19.00;99.90;;;;;;5067648;28;20098;-83
2023/08/25 00:34:44;;;;;;;13.68;12.27;;;19.00;99.90;;;;;;5084382;28;20135;-84
2023/08/25 00:37:10;;;;;;;14.20;12.73;;;19.00;99.90;;;;;;5078488;28;20040;-84
2023/08/25 00:39:36;;;;;;;15.45;12.40;;;19.00;99.90;;;;;;5077398;28;20049;-84
2023/08/25 00:42:01;;;;;;;13.23;11.95;;;19.00;99.90;;;;;;5076945;28;20101;-84
2023/08/25 00:44:27;;;;;;;15.00;13.38;;;19.10;99.90;;;;;;5067375;28;20040;-83
2023/08/25 00:46:53;;;;;;;12.82;11.63;;;19.10;99.90;;;;;;5082507;28;20473;-84
2023/08/25 00:49:20;;;;;;;14.43;12.93;;;19.10;99.90;;;;;;5090265;28;20342;-84
2023/08/25 00:51:46;;;;;;;14.15;12.70;;;19.10;99.90;;;;;;5074843;28;20091;-84
2023/08/25 00:54:12;;;;;;;16.60;14.00;;;19.10;99.90;;;;;;5070454;28;20072;-84
2023/08/25 00:56:38;;;;;;;14.55;12.80;;;19.00;99.90;;;;;;5072444;28;20040;-84
2023/08/25 00:59:04;;;;;;;15.70;14.10;;;19.20;99.90;;;;;;5071100;28;20047;-83
2023/08/25 01:01:31;;;;;;;15.07;13.77;;;19.20;99.90;;;;;;5081669;28;20044;-83
2023/08/25 01:03:56;;;;;;;15.02;13.48;;;19.20;99.90;;;;;;5090425;28;20379;-84
2023/08/25 01:06:23;;;;;;;14.20;12.80;;;19.20;99.90;;;;;;5091048;28;20127;-84
2023/08/25 01:08:49;;;;;;;14.73;13.38;;;19.20;99.90;;;;;;5084207;28;20045;-84
2023/08/25 01:11:33;;;;;;;15.30;13.90;;;19.20;99.90;;;;;;5070375;28;20704;-84
2023/08/25 01:14:21;;;;;;;15.35;13.75;;;19.30;99.90;;;;;;5070931;28;20049;-84
2023/08/25 01:17:04;;;;;;;15.00;13.43;;;19.30;99.90;;;;;;5074871;28;20049;-84
2023/08/25 01:19:32;;;;;;;13.93;12.63;;;19.30;99.90;;;;;;5079017;28;20737;-84
2023/08/25 01:21:59;;;;;;;14.60;13.10;;;19.30;99.90;;;;;;5074401;28;20052;-84
2023/08/25 01:24:29;;;;;;;15.50;13.93;;;19.40;99.90;;;;;;5070422;28;20059;-83
2023/08/25 01:26:55;;;;;;;16.55;14.88;;;19.40;99.90;;;;;;5070830;28;20048;-83
2023/08/25 01:29:20;;;;;;;16.25;14.50;;;19.30;99.90;;;;;;5070601;28;20033;-84
2023/08/25 01:31:46;;;;;;;16.30;14.50;;;19.40;99.90;;;;;;5071134;28;20052;-83
2023/08/25 01:34:13;;;;;;;17.02;14.93;;;19.40;99.90;;;;;;5070760;28;20052;-84
2023/08/25 01:36:54;;;;;;;16.25;14.75;;;19.40;99.90;;;;;;5070427;28;20788;-83
2023/08/25 01:39:22;;;;;;;16.30;14.80;;;19.60;99.90;;;;;;5086882;28;20145;-84
2023/08/25 01:41:54;;;;;;;16.33;14.68;;;19.40;99.90;;;;;;5085557;28;20311;-84
2023/08/25 01:44:21;;;;;;;16.55;14.80;;;19.40;99.90;;;;;;5084023;28;20054;-84
2023/08/25 01:46:54;;;;;;;17.48;15.68;;;19.40;99.90;;;;;;5074170;28;20881;-84
2023/08/25 01:49:21;;;;;;;18.33;16.45;;;19.40;99.90;;;;;;5090126;28;20205;-84
2023/08/25 01:51:47;;;;;;;18.38;16.58;;;19.40;99.90;;;;;;5076216;28;20043;-84
2023/08/25 01:54:13;;;;;;;18.80;16.95;;;19.40;99.90;;;;;;5069564;28;20052;-83
2023/08/25 01:56:39;;;;;;;21.05;18.67;;;19.30;99.90;;;;;;5070444;28;20430;-84
2023/08/25 01:59:05;;;;;;;20.05;17.95;;;19.30;99.90;;;;;;5070200;28;20040;-84
2023/08/25 02:01:30;;;;;;;21.63;18.00;;;19.30;99.90;;;;;;5069547;28;20037;-83
2023/08/25 02:03:58;;;;;;;20.15;17.42;;;19.30;99.90;;;;;;5070504;28;20041;-84
2023/08/25 02:06:23;;;;;;;20.20;18.23;;;19.20;99.90;;;;;;5085257;28;20120;-84
2023/08/25 02:08:49;;;;;;;19.90;17.90;;;19.30;99.90;;;;;;5069176;28;20086;-83
2023/08/25 02:11:14;;;;;;;20.05;18.08;;;19.20;99.90;;;;;;5069553;28;20554;-84
2023/08/25 02:13:40;;;;;;;21.80;18.75;;;19.10;99.90;;;;;;5069093;28;20067;-84
2023/08/25 02:16:05;;;;;;;21.33;19.05;;;19.10;99.90;;;;;;5070939;28;20079;-84
2023/08/25 02:18:31;;;;;;;19.70;17.75;;;19.10;99.90;;;;;;5070944;28;20043;-84
2023/08/25 02:20:57;;;;;;;20.48;18.38;;;19.10;99.90;;;;;;5081197;28;20128;-84
2023/08/25 02:23:23;;;;;;;21.60;19.30;;;19.10;99.90;;;;;;5069739;28;20048;-84
2023/08/25 02:25:48;;;;;;;22.40;20.15;;;19.10;99.90;;;;;;5069987;28;20052;-84
2023/08/25 02:28:14;;;;;;;22.90;19.58;;;19.20;99.90;;;;;;5068771;28;20522;-84
2023/08/25 02:30:40;;;;;;;22.58;20.17;;;19.10;99.90;;;;;;5068974;28;20044;-84
2023/08/25 02:33:06;;;;;;;23.10;19.80;;;19.10;99.90;;;;;;5068417;28;20541;-84
2023/08/25 02:35:32;;;;;;;22.65;19.77;;;19.10;99.90;;;;;;5069141;28;20524;-84
2023/08/25 02:38:07;;;;;;;24.02;21.40;;;19.00;99.90;;;;;;5079519;28;20044;-84
2023/08/25 02:40:33;;;;;;;24.42;21.02;;;18.90;99.90;;;;;;5070244;28;20055;-83
2023/08/25 02:43:00;;;;;;;21.77;19.48;;;18.90;99.90;;;;;;5081552;28;20564;-84
2023/08/25 02:45:27;;;;;;;23.20;20.77;;;18.90;99.90;;;;;;5070217;28;20044;-84
2023/08/25 02:47:53;;;;;;;25.25;21.35;;;18.90;99.90;;;;;;5067557;28;20044;-84
2023/08/25 02:50:20;;;;;;;23.33;20.85;;;18.90;99.90;;;;;;5067641;28;20040;-84
2023/08/25 02:52:46;;;;;;;26.90;23.75;;;18.90;99.90;;;;;;5069449;28;20150;-84
2023/08/25 02:55:18;;;;;;;25.88;22.83;;;18.90;99.90;;;;;;5069337;28;20504;-84
2023/08/25 02:57:43;;;;;;;;;;;18.90;99.90;;;;;;5085036;28;20048;-84
2023/08/25 03:00:11;;;;;;;24.45;21.15;;;18.90;99.90;;;;;;5076845;28;20062;-84
2023/08/25 03:02:37;;;;;;;25.40;21.42;;;18.90;99.90;;;;;;5084333;28;20086;-83
2023/08/25 03:05:03;;;;;;;24.75;21.92;;;18.90;99.90;;;;;;5088183;28;20094;-84
2023/08/25 03:07:29;;;;;;;24.48;19.98;;;18.80;99.90;;;;;;5083204;28;20041;-84
2023/08/25 03:09:55;;;;;;;22.08;19.88;;;18.80;99.90;;;;;;5068094;28;20044;-83
2023/08/25 03:12:20;;;;;;;23.65;21.08;;;18.70;99.90;;;;;;5062299;28;20189;-84
2023/08/25 03:14:46;;;;;;;26.67;20.52;;;18.70;99.90;;;;;;5069853;28;20083;-84
2023/08/25 03:17:12;;;;;;;25.85;21.63;;;18.70;99.90;;;;;;5077052;28;20113;-84
2023/08/25 03:19:37;;;;;;;23.27;20.77;;;18.70;99.90;;;;;;5068778;28;20040;-83
2023/08/25 03:22:04;;;;;;;24.30;21.70;;;18.60;99.90;;;;;;5067746;28;20037;-84
2023/08/25 03:24:29;;;;;;;24.33;20.95;;;18.60;99.90;;;;;;5076417;28;20047;-84
2023/08/25 03:26:58;;;;;;;26.05;21.90;;;18.60;99.90;;;;;;5077429;28;20040;-84
2023/08/25 03:29:24;;;;;;;24.35;21.77;;;18.60;99.90;;;;;;5068824;28;20040;-84
2023/08/25 03:31:50;;;;;;;25.17;21.20;;;18.60;99.90;;;;;;5081614;28;20051;-84
2023/08/25 03:34:15;;;;;;;25.13;21.75;;;18.60;99.90;;;;;;5088497;28;20044;-84
2023/08/25 03:36:41;;;;;;;25.05;22.38;;;18.60;99.90;;;;;;5071086;28;20129;-83
2023/08/25 03:39:06;;;;;;;26.45;22.92;;;18.60;99.90;;;;;;5070024;28;20052;-84
2023/08/25 03:41:32;;;;;;;23.50;21.02;;;18.60;99.90;;;;;;5087822;28;20151;-83
2023/08/25 03:43:58;;;;;;;23.50;21.02;;;18.60;99.90;;;;;;5072245;28;20055;-84
2023/08/25 03:46:23;;;;;;;24.23;19.83;;;18.60;99.90;;;;;;5068250;28;20037;-84
2023/08/25 03:48:49;;;;;;;24.67;22.05;;;18.60;99.90;;;;;;5079660;28;20043;-84
2023/08/25 03:51:14;;;;;;;25.38;22.35;;;18.60;99.90;;;;;;5070642;28;20056;-84
2023/08/25 03:53:40;;;;;;;25.92;21.20;;;18.60;99.90;;;;;;5069212;28;20047;-85
2023/08/25 03:56:06;;;;;;;28.05;23.05;;;18.60;99.90;;;;;;5072072;28;20710;-84
2023/08/25 03:58:32;;;;;;;26.35;23.02;;;18.60;99.90;;;;;;5067592;28;20048;-84
2023/08/25 04:00:58;;;;;;;27.15;22.48;;;18.60;99.90;;;;;;5068244;28;20439;-84
2023/08/25 04:03:24;;;;;;;25.55;22.17;;;18.70;99.90;;;;;;5073208;28;20096;-85
2023/08/25 04:05:50;;;;;;;25.15;21.75;;;18.60;99.90;;;;;;5085544;28;20036;-84
2023/08/25 04:08:16;;;;;;;25.15;21.25;;;18.70;99.90;;;;;;5067892;28;20040;-83
2023/08/25 04:10:43;;;;;;;27.85;23.70;;;18.70;99.90;;;;;;5067810;28;20051;-84
2023/08/25 04:13:09;;;;;;;27.52;22.10;;;18.50;99.90;;;;;;5071263;28;20406;-83
2023/08/25 04:15:36;;;;;;;27.02;23.88;;;18.70;99.90;;;;;;5071516;28;20123;-83
2023/08/25 04:18:02;;;;;;;28.05;23.80;;;19.10;99.90;;;;;;5083772;28;20054;-84
2023/08/25 04:20:28;;;;;;;30.92;22.55;;;18.70;99.90;;;;;;5068025;28;20084;-83
2023/08/25 04:22:53;;;;;;;28.70;23.83;;;18.70;99.90;;;;;;5067004;28;20129;-84
2023/08/25 04:25:19;;;;;;;29.05;24.67;;;18.70;99.90;;;;;;5066830;28;20039;-83
2023/08/25 04:27:44;;;;;;;31.52;26.55;;;18.70;99.90;;;;;;5075141;28;20048;-83
2023/08/25 04:30:11;;;;;;;32.35;26.75;;;18.70;99.90;;;;;;5074861;28;20041;-83
2023/08/25 04:32:36;;;;;;;31.33;26.73;;;18.70;99.90;;;;;;5085425;28;20044;-83
2023/08/25 04:35:03;;;;;;;35.63;26.55;;;18.70;99.90;;;;;;5082541;28;20756;-83
2023/08/25 04:37:29;;;;;;;36.28;29.23;;;18.70;99.90;;;;;;5066938;28;20102;-83
2023/08/25 04:39:55;;;;;;;41.53;30.80;;;18.70;99.90;;;;;;5070013;28;20134;-84
2023/08/25 04:42:22;;;;;;;32.90;27.10;;;18.70;99.90;;;;;;5086374;28;20059;-83
2023/08/25 04:44:48;;;;;;;39.25;30.20;;;18.60;99.90;;;;;;5085814;28;20056;-83
2023/08/25 04:47:13;;;;;;;36.65;28.98;;;18.70;99.90;;;;;;5080555;28;20097;-83
2023/08/25 04:49:39;;;;;;;36.63;28.15;;;18.60;99.90;;;;;;5075084;28;20351;-84
2023/08/25 04:52:04;;;;;;;37.90;29.30;;;18.60;99.90;;;;;;5067545;28;20045;-82
2023/08/25 04:54:30;;;;;;;40.22;32.13;;;18.70;99.90;;;;;;5066595;28;20051;-83
2023/08/25 04:56:56;;;;;;;39.35;30.40;;;18.70;99.90;;;;;;5076405;28;20124;-83
2023/08/25 04:59:23;;;;;;;44.92;32.72;;;18.60;99.90;;;;;;5066516;28;20237;-83
2023/08/25 05:01:49;;;;;;;41.10;31.83;;;18.60;99.90;;;;;;5067213;28;20056;-83
2023/08/25 05:04:14;;;;;;;48.50;34.15;;;18.60;99.90;;;;;;5067352;28;20040;-83
2023/08/25 05:06:40;;;;;;;44.40;33.15;;;18.70;99.90;;;;;;5069141;28;20498;-85
2023/08/25 05:09:06;;;;;;;40.25;32.65;;;18.60;99.90;;;;;;5073069;28;20054;-85
2023/08/25 05:11:33;;;;;;;44.75;32.88;;;18.60;99.90;;;;;;5071469;28;20048;-84
2023/08/25 05:13:59;;;;;;;41.13;32.22;;;18.70;99.90;;;;;;5066808;28;20075;-84
2023/08/25 05:16:25;;;;;;;42.10;32.33;;;18.70;99.90;;;;;;5073054;28;20048;-84
2023/08/25 05:18:50;;;;;;;44.85;33.08;;;18.70;99.90;;;;;;5069227;28;20066;-84
2023/08/25 05:21:16;;;;;;;40.28;32.03;;;18.70;99.90;;;;;;5066408;28;20041;-84
2023/08/25 05:23:48;;;;;;;41.35;30.92;;;18.70;99.90;;;;;;5075053;28;20043;-85
2023/08/25 05:26:14;;;;;;;42.10;32.83;;;18.70;99.90;;;;;;5075463;28;20052;-85
2023/08/25 05:28:40;;;;;;;44.90;32.08;;;18.80;99.90;;;;;;5079610;28;20048;-84
2023/08/25 05:31:05;;;;;;;42.40;32.45;;;18.80;99.90;;;;;;5068786;28;20048;-86
2023/08/25 05:33:31;;;;;;;40.75;30.73;;;18.80;99.90;;;;;;5085052;28;20050;-86
2023/08/25 05:35:56;;;;;;;42.88;33.45;;;18.90;99.90;;;;;;5071352;28;20449;-84
2023/08/25 05:38:22;;;;;;;42.22;31.45;;;18.90;99.90;;;;;;5074386;28;20056;-83
2023/08/25 05:40:48;;;;;;;45.08;33.17;;;18.90;99.90;;;;;;5089296;28;20139;-84
2023/08/25 05:43:13;;;;;;;38.60;30.98;;;19.00;99.90;;;;;;5087693;28;20442;-84
2023/08/25 05:45:39;;;;;;;42.03;31.65;;;19.00;99.90;;;;;;5079658;28;20084;-83
2023/08/25 05:48:05;;;;;;;47.85;33.47;;;19.10;99.90;;;;;;5070175;28;20418;-84
2023/08/25 05:50:30;;;;;;;38.70;32.13;;;19.10;99.90;;;;;;5070605;28;20048;-84
2023/08/25 05:52:56;;;;;;;42.92;32.67;;;19.20;99.90;;;;;;5069124;28;20051;-83
2023/08/25 05:55:22;;;;;;;51.00;33.92;;;19.20;99.90;;;;;;5069010;28;20063;-83
2023/08/25 05:57:47;;;;;;;43.75;32.75;;;19.20;99.90;;;;;;5070158;28;20066;-84
2023/08/25 06:00:13;;;;;;;43.38;31.85;;;19.30;99.90;;;;;;5070071;28;20616;-84
2023/08/25 06:02:40;;;;;;;45.15;34.28;;;19.40;99.90;;;;;;5069327;28;20481;-84
2023/08/25 06:05:06;;;;;;;45.47;33.03;;;19.40;99.90;;;;;;5069006;28;20041;-83
2023/08/25 06:07:31;;;;;;;44.80;32.65;;;19.50;99.90;;;;;;5069935;28;20041;-84
2023/08/25 06:09:57;;;;;;;44.35;32.55;;;19.50;99.90;;;;;;5068568;28;20052;-84
2023/08/25 06:12:22;;;;;;;44.83;31.95;;;19.50;99.90;;;;;;5087842;28;20081;-85
2023/08/25 06:14:49;;;;;;;42.92;33.17;;;19.50;99.90;;;;;;5073604;28;20581;-87
2023/08/25 06:17:15;;;;;;;40.72;30.80;;;19.60;99.90;;;;;;5068915;28;20247;-83
2023/08/25 06:19:43;;;;;;;41.67;31.58;;;19.60;99.90;;;;;;5070108;28;20135;-81
2023/08/25 06:22:10;;;;;;;41.00;32.38;;;19.70;99.90;;;;;;5070270;28;20162;-81
2023/08/25 06:24:35;;;;;;;45.13;34.67;;;19.70;99.90;;;;;;5069327;28;20573;-81
2023/08/25 06:27:02;;;;;;;43.15;32.95;;;19.70;99.90;;;;;;5070246;28;20102;-81
2023/08/25 06:29:27;;;;;;;42.97;33.75;;;19.70;99.90;;;;;;5069855;28;20040;-81
2023/08/25 06:31:53;;;;;;;40.92;33.13;;;19.80;99.90;;;;;;5069968;28;20113;-81
2023/08/25 06:34:19;;;;;;;42.22;33.13;;;19.80;99.90;;;;;;5069734;28;20041;-81
2023/08/25 06:36:44;;;;;;;43.80;33.10;;;19.90;99.90;;;;;;5069693;28;20044;-81
2023/08/25 06:39:11;;;;;;;41.58;32.90;;;19.90;99.90;;;;;;5068742;28;20060;-81
2023/08/25 06:41:36;;;;;;;42.00;31.45;;;19.90;99.90;;;;;;5069218;28;20044;-81
2023/08/25 06:44:02;;;;;;;36.90;31.15;;;20.00;99.90;;;;;;5069564;28;20102;-82
2023/08/25 06:46:27;;;;;;;33.05;29.15;;;20.10;99.90;;;;;;5074016;28;20047;-82
2023/08/25 06:48:53;;;;;;;37.58;30.67;;;20.10;99.90;;;;;;5072029;28;20045;-81
2023/08/25 06:51:19;;;;;;;36.70;30.42;;;20.30;99.90;;;;;;5089832;28;20102;-81
2023/08/25 06:53:44;;;;;;;34.72;29.70;;;20.40;99.90;;;;;;5079770;28;20062;-81
2023/08/25 06:56:10;;;;;;;33.70;28.08;;;20.50;99.90;;;;;;5079333;28;20039;-80
2023/08/25 06:58:36;;;;;;;29.60;25.30;;;20.60;99.90;;;;;;5070427;28;20037;-81
2023/08/25 07:01:02;;;;;;;33.90;28.27;;;20.70;99.90;;;;;;5068342;28;20055;-81
2023/08/25 07:03:28;;;;;;;35.55;29.73;;;20.90;99.90;;;;;;5067562;28;20043;-82
2023/08/25 07:05:59;;;;;;;34.50;28.92;;;21.00;99.90;;;;;;5072891;28;20051;-81
2023/08/25 07:08:25;;;;;;;32.20;28.65;;;21.20;99.90;;;;;;5089429;28;20039;-82
2023/08/25 07:10:51;;;;;;;31.05;27.65;;;21.30;99.90;;;;;;5087833;28;20036;-82
2023/08/25 07:13:17;;;;;;;31.88;28.23;;;21.30;99.90;;;;;;5087645;28;20048;-81
2023/08/25 07:15:43;;;;;;;35.30;29.50;;;21.40;99.90;;;;;;5087627;28;20423;-81
2023/08/25 07:18:09;;;;;;;33.10;28.40;;;21.40;99.90;;;;;;5087492;28;20063;-82
2023/08/25 07:20:35;;;;;;;32.30;28.17;;;21.50;99.90;;;;;;5083702;28;20040;-82
2023/08/25 07:23:00;;;;;;;32.55;27.67;;;21.50;99.90;;;;;;5067019;28;20126;-82
2023/08/25 07:25:26;;;;;;;34.30;28.55;;;21.50;99.90;;;;;;5080289;28;20131;-81
2023/08/25 07:27:51;;;;;;;34.33;28.33;;;21.60;99.90;;;;;;5088749;28;20662;-82
2023/08/25 07:30:17;;;;;;;36.25;28.75;;;21.60;99.90;;;;;;5087667;28;20072;-82
2023/08/25 07:32:42;;;;;;;33.00;27.92;;;21.50;99.90;;;;;;5088399;28;20074;-82
2023/08/25 07:35:08;;;;;;;31.75;28.35;;;21.50;99.90;;;;;;5088802;28;20044;-82
2023/08/25 07:37:34;;;;;;;31.40;27.88;;;21.50;99.90;;;;;;5066461;28;20066;-82
2023/08/25 07:40:00;;;;;;;34.75;28.05;;;21.50;99.90;;;;;;5068351;28;20056;-82
2023/08/25 07:42:26;;;;;;;31.80;26.27;;;21.40;99.90;;;;;;5068432;28;20051;-82
2023/08/25 07:44:52;;;;;;;31.55;27.20;;;21.60;99.90;;;;;;5068097;28;20052;-82
2023/08/25 07:47:18;;;;;;;30.65;26.63;;;21.70;99.90;;;;;;5066812;28;20051;-82
2023/08/25 07:49:43;;;;;;;30.27;26.13;;;21.80;99.90;;;;;;5068024;28;20541;-82
2023/08/25 07:52:09;;;;;;;34.33;27.15;;;21.90;99.90;;;;;;5067276;28;20040;-82
2023/08/25 07:54:35;;;;;;;29.92;26.73;;;22.00;99.90;;;;;;5068735;28;20040;-82
2023/08/25 07:57:01;;;;;;;31.00;26.52;;;22.10;99.90;;;;;;5072070;28;20054;-81
2023/08/25 07:59:26;;;;;;;34.33;27.70;;;22.10;99.90;;;;;;5069961;28;20043;-82
2023/08/25 08:01:52;;;;;;;33.75;27.33;;;22.00;99.90;;;;;;5088249;28;20056;-82
2023/08/25 08:04:17;;;;;;;33.08;27.38;;;21.90;99.90;;;;;;5087127;28;20134;-82
2023/08/25 08:06:43;;;;;;;33.80;27.23;;;21.90;99.90;;;;;;5087829;28;20044;-82
2023/08/25 08:09:08;;;;;;;30.92;27.25;;;21.90;99.90;;;;;;5087970;28;20048;-82
2023/08/25 08:11:35;;;;;;;32.45;27.10;;;22.10;99.90;;;;;;5086131;28;20405;-82
2023/08/25 08:14:01;;;;;;;35.28;26.80;;;22.20;99.90;;;;;;5079391;28;20049;-82
2023/08/25 08:16:26;;;;;;;31.00;26.58;;;22.40;99.90;;;;;;5067939;28;20040;-82
2023/08/25 08:18:52;;;;;;;32.33;25.42;;;22.40;99.90;;;;;;5067656;28;20056;-82
2023/08/25 08:21:18;;;;;;;30.85;25.35;;;22.30;99.90;;;;;;5068330;28;20067;-82
2023/08/25 08:23:44;;;;;;;28.95;25.60;;;22.30;99.90;;;;;;5065700;28;20049;-81
2023/08/25 08:26:10;;;;;;;31.20;26.17;;;22.30;99.90;;;;;;5068338;28;20041;-82
2023/08/25 08:28:35;;;;;;;31.73;26.48;;;22.30;99.90;;;;;;5074179;28;20098;-82
2023/08/25 08:31:05;;;;;;;33.10;26.58;;;22.20;99.90;;;;;;5078238;28;20425;-82
2023/08/25 08:33:31;;;;;;;30.80;25.25;;;22.20;99.90;;;;;;5066858;28;20057;-82
2023/08/25 08:35:57;;;;;;;30.13;25.63;;;22.10;99.90;;;;;;5067136;28;20417;-82
2023/08/25 08:38:23;;;;;;;29.52;24.63;;;22.10;99.90;;;;;;5067459;28;20033;-82
2023/08/25 08:40:49;;;;;;;30.35;24.42;;;22.10;99.90;;;;;;5067705;28;20053;-82
2023/08/25 08:43:17;;;;;;;30.20;24.50;;;22.10;99.90;;;;;;5068131;28;20045;-82
2023/08/25 08:45:43;;;;;;;30.13;24.27;;;22.10;99.90;;;;;;5067707;28;20759;-81
2023/08/25 08:48:09;;;;;;;27.55;23.40;;;22.10;99.90;;;;;;5079808;28;20051;-82
2023/08/25 08:50:35;;;;;;;29.67;25.10;;;22.10;99.90;;;;;;5087636;28;20115;-82
2023/08/25 08:53:01;;;;;;;29.70;25.55;;;22.10;99.90;;;;;;5087510;28;20179;-82
2023/08/25 08:55:27;;;;;;;29.85;25.35;;;22.10;99.90;;;;;;5087097;28;20121;-82
2023/08/25 08:57:53;;;;;;;30.75;26.20;;;22.10;99.90;;;;;;5087491;28;20052;-82
2023/08/25 09:00:19;;;;;;;32.50;26.25;;;22.10;99.90;;;;;;5087922;28;20516;-81
2023/08/25 09:02:53;;;;;;;28.00;24.80;;;22.10;99.90;;;;;;5075133;28;20045;-83
2023/08/25 09:05:27;;;;;;;28.75;25.00;;;22.20;99.90;;;;;;5067480;28;20075;-82
2023/08/25 09:07:59;;;;;;;29.60;24.27;;;22.20;99.90;;;;;;5067648;28;20145;-82
2023/08/25 09:10:25;;;;;;;28.85;24.80;;;22.20;99.90;;;;;;5070734;28;20048;-82
2023/08/25 09:12:51;;;;;;;30.60;24.65;;;22.20;99.90;;;;;;5070918;28;20059;-82
2023/08/25 09:15:31;;;;;;;29.10;24.40;;;22.20;99.90;;;;;;5071628;28;20677;-82
2023/08/25 09:18:04;;;;;;;27.70;24.13;;;22.10;99.90;;;;;;5071575;28;20055;-82
2023/08/25 09:20:33;;;;;;;28.58;23.77;;;22.10;99.90;;;;;;5084772;28;20044;-81
2023/08/25 09:23:00;;;;;;;31.17;24.08;;;22.10;99.90;;;;;;5071014;28;20052;-82
2023/08/25 09:25:26;;;;;;;29.23;25.67;;;22.00;99.90;;;;;;5085541;28;20044;-82
2023/08/25 09:28:02;;;;;;;29.73;25.40;;;21.90;99.90;;;;;;5089812;28;20112;-82
2023/08/25 09:30:42;;;;;;;31.70;25.23;;;21.90;99.90;;;;;;5078832;28;20048;-82
2023/08/25 09:33:13;;;;;;;32.70;25.33;;;21.90;99.90;;;;;;5073293;28;20064;-83
2023/08/25 09:35:39;;;;;;;30.97;24.73;;;21.90;99.90;;;;;;5082954;28;20032;-81
2023/08/25 09:38:05;;;;;;;31.88;25.73;;;21.80;99.90;;;;;;5071605;28;20135;-81
2023/08/25 09:40:31;;;;;;;32.65;27.10;;;21.70;99.90;;;;;;5069412;28;20406;-81
2023/08/25 09:43:02;;;;;;;33.90;27.02;;;21.60;99.90;;;;;;5070393;28;20692;-82
2023/08/25 09:45:29;;;;;;;29.83;26.25;;;21.60;99.90;;;;;;5083869;28;20043;-81
2023/08/25 09:48:14;;;;;;;34.75;26.88;;;21.50;99.90;;;;;;5090730;28;20040;-82
2023/08/25 09:50:41;;;;;;;31.77;25.02;;;21.60;99.90;;;;;;5090143;28;20040;-80
2023/08/25 09:53:08;;;;;;;33.95;27.27;;;21.60;99.90;;;;;;5091226;28;20048;-79
2023/08/25 09:55:38;;;;;;;29.08;25.65;;;21.70;99.90;;;;;;5090252;28;20051;-79
2023/08/25 09:58:12;;;;;;;33.53;26.45;;;21.60;99.90;;;;;;5079121;28;20040;-80
2023/08/25 10:00:38;;;;;;;31.85;25.52;;;21.80;99.90;;;;;;5070392;28;20052;-80
2023/08/25 10:03:06;;;;;;;34.17;25.75;;;21.80;99.90;;;;;;5082646;28;20053;-79
2023/08/25 10:05:32;;;;;;;29.05;24.88;;;21.80;99.90;;;;;;5070274;28;20382;-80
2023/08/25 10:07:59;;;;;;;27.75;24.13;;;21.80;99.90;;;;;;5070265;28;20036;-79
2023/08/25 10:10:26;;;;;;;27.45;24.45;;;22.00;99.90;;;;;;5079171;28;20500;-78
2023/08/25 10:12:55;;;;;;;30.58;22.65;;;22.10;99.90;;;;;;5089935;28;20051;-79
2023/08/25 10:15:22;;;;;;;32.30;24.80;;;22.30;99.90;;;;;;5071516;28;20055;-80
2023/08/25 10:17:49;;;;;;;31.38;25.27;;;22.50;99.90;;;;;;5080006;28;20516;-79
2023/08/25 10:20:16;;;;;;;28.98;23.95;;;22.60;99.90;;;;;;5069969;28;20070;-81
2023/08/25 10:22:49;;;;;;;28.27;22.58;;;22.70;99.90;;;;;;5069532;28;20129;-79
2023/08/25 10:25:17;;;;;;;30.83;22.10;;;22.70;99.90;;;;;;5079155;28;20127;-79
2023/08/25 10:27:43;;;;;;;25.45;19.25;;;22.90;99.90;;;;;;5088245;28;20047;-79
2023/08/25 10:30:09;;;;;;;20.83;18.38;;;23.10;99.90;;;;;;5084955;28;20439;-80
2023/08/25 10:32:49;;;;;;;22.40;18.08;;;23.20;99.90;;;;;;5069850;28;20055;-79
2023/08/25 10:35:14;;;;;;;24.13;18.80;;;23.40;99.90;;;;;;5070049;28;20052;-79
2023/08/25 10:37:40;;;;;;;22.15;18.80;;;23.60;99.90;;;;;;5076189;28;20098;-79
2023/08/25 10:40:12;;;;;;;21.30;18.38;;;23.40;99.90;;;;;;5069027;28;20053;-79
2023/08/25 10:42:38;;;;;;;19.13;16.90;;;23.50;99.90;;;;;;5078104;28;20080;-79
2023/08/25 10:45:07;;;;;;;19.38;15.13;;;23.50;99.90;;;;;;5068463;28;20087;-78
2023/08/25 10:47:38;;;;;;;17.67;15.45;;;23.50;99.90;;;;;;5069109;28;20047;-78
2023/08/25 10:50:04;;;;;;;19.10;17.08;;;23.40;99.90;;;;;;5068493;28;20117;-79
2023/08/25 10:52:31;;;;;;;23.73;18.48;;;23.60;99.90;;;;;;5067932;28;20117;-78
2023/08/25 10:54:56;;;;;;;22.23;19.58;;;23.70;99.90;;;;;;5068792;28;20522;-78
2023/08/25 10:57:29;;;;;;;20.90;16.92;;;23.80;99.90;;;;;;5081452;28;20052;-82
2023/08/25 11:00:24;;;;;;;21.75;18.55;;;24.00;99.90;;;;;;5078514;28;20077;-82
2023/08/25 11:02:51;;;;;;;20.23;16.38;;;24.10;99.90;;;;;;5067460;28;20075;-83
2023/08/25 11:05:31;;;;;;;20.73;18.52;;;24.20;99.90;;;;;;5069255;28;20044;-81
2023/08/25 11:08:00;;;;;;;22.40;19.92;;;24.40;99.90;;;;;;5067778;28;20167;-82
2023/08/25 11:10:27;;;;;;;22.20;19.77;;;24.50;99.90;;;;;;5068529;28;20044;-82
2023/08/25 11:12:53;;;;;;;23.52;20.90;;;24.50;99.90;;;;;;5068628;28;20446;-81
2023/08/25 11:15:21;;;;;;;22.30;20.13;;;24.50;99.90;;;;;;5072293;28;20098;-81
2023/08/25 11:17:48;;;;;;;22.52;20.15;;;24.30;99.90;;;;;;5069286;28;20050;-81
2023/08/25 11:20:16;;;;;;;23.23;20.13;;;24.30;99.90;;;;;;5089105;28;20047;-81
2023/08/25 11:22:55;;;;;;;22.17;19.88;;;24.20;99.90;;;;;;5087149;28;20047;-81
2023/08/25 11:25:21;;;;;;;22.33;20.00;;;24.10;99.90;;;;;;5088963;28;20044;-80
2023/08/25 11:27:50;;;;;;;22.38;20.17;;;24.00;99.90;;;;;;5086456;28;20507;-80
2023/08/25 11:30:17;;;;;;;21.55;19.25;;;23.90;99.90;;;;;;5087853;28;20510;-81
2023/08/25 11:32:45;;;;;;;21.38;19.13;;;23.80;99.90;;;;;;5087189;28;20067;-81
2023/08/25 11:35:12;;;;;;;20.85;18.88;;;23.80;99.90;;;;;;5088593;28;20567;-81
2023/08/25 11:37:39;;;;;;;23.20;19.60;;;23.80;99.90;;;;;;5070555;28;20113;-80
2023/08/25 11:40:06;;;;;;;19.73;17.63;;;23.90;99.90;;;;;;5077578;28;20055;-81
2023/08/25 11:42:31;;;;;;;21.45;19.25;;;23.90;99.90;;;;;;5069292;28;20051;-81
2023/08/25 11:44:57;;;;;;;21.48;19.38;;;23.90;99.90;;;;;;5069358;28;20037;-82
2023/08/25 11:47:22;;;;;;;20.77;18.35;;;24.00;99.90;;;;;;5068539;28;20102;-81
2023/08/25 11:49:50;;;;;;;18.90;16.77;;;23.90;99.90;;;;;;5066940;28;20044;-82
2023/08/25 11:52:16;;;;;;;21.20;18.73;;;24.00;99.90;;;;;;5066877;28;20040;-81
2023/08/25 11:54:47;;;;;;;19.60;17.60;;;23.90;99.90;;;;;;5067321;28;20052;-80
2023/08/25 11:57:13;;;;;;;20.00;17.88;;;24.10;99.90;;;;;;5068398;28;20566;-80
2023/08/25 11:59:43;;;;;;;17.52;15.70;;;24.20;99.90;;;;;;5083511;28;20056;-80
2023/08/25 12:02:13;;;;;;;20.10;17.50;;;24.10;99.90;;;;;;5077314;28;20383;-80
2023/08/25 12:04:39;;;;;;;18.25;16.45;;;24.00;99.90;;;;;;5072495;28;20487;-80
2023/08/25 12:07:04;;;;;;;19.58;17.50;;;24.00;99.90;;;;;;5086689;28;20048;-81
2023/08/25 12:09:30;;;;;;;17.90;15.98;;;23.80;99.90;;;;;;5069741;28;20042;-81
2023/08/25 12:11:56;;;;;;;17.35;15.45;;;23.70;99.90;;;;;;5087839;28;20044;-80
2023/08/25 12:14:26;;;;;;;18.02;15.02;;;23.50;99.90;;;;;;5070135;28;20531;-80
2023/08/25 12:16:52;;;;;;;16.60;15.10;;;23.40;99.90;;;;;;5071754;28;20071;-82
2023/08/25 12:19:18;;;;;;;18.55;15.45;;;23.30;99.90;;;;;;5068083;28;20394;-81
2023/08/25 12:21:43;;;;;;;17.30;15.48;;;23.30;99.90;;;;;;5066547;28;20505;-81
2023/08/25 12:24:09;;;;;;;17.13;15.10;;;23.30;99.90;;;;;;5066818;28;20158;-81
2023/08/25 12:26:35;;;;;;;13.35;10.80;;;23.30;99.90;;;;;;5067674;28;20101;-82